Windermere, Canada
Current Conditions -  °F | °C
As of 10:00 PM on Saturday 22 Nov 2014 (Local Time) from CYXC Reporting Station
Broken Clouds Broken Clouds  
Wind Chill: 23°   Ceiling: 15000
Heat Index: 30°   Visibility: 25mi
Dew Point: 23°   Wind: 7mph
Humidity: 75%   Direction: 200°SSW
Pressure: 29.7"   Gusts: NA
Location:  50.47°N, 115.97°W
Report Text: CYXC 230500Z 20006KT 25SM FEW080 BKN150 M01/M05 A2970 RMK AC2AC5 SLP086
Loading
Personal Weather Stations






























Interactive Weather Map New forecast layout! Learn more

10-Day Weather Forecast

Advertisements
Track Severe Weather on mobile